Upper Tygart, Kentucky
Current Conditions -  °F | °C
As of 6:10 PM on Tuesday 27 Jan 2015 (Local Time) from KSYM Reporting Station
Clear Clear  
Wind Chill: 20°   Ceiling: Unl
Heat Index: 27°   Visibility: 10mi
Dew Point: 14°   Wind: 6mph
Humidity: 59%   Direction: 320°NW
Pressure: 30.14"   Gusts: NA
Location:  38.3543°N, 83.1837°W
Report Text: KSYM 272310Z AUTO 32005KT 10SM CLR M03/M10 A3014 RMK AO2
Loading
Personal Weather Stations






























Interactive Weather Map New forecast layout! Learn more

10-Day Weather Forecast

Advertisements
Track Severe Weather on mobile